PWSweather.com
Personal Weather Stations
Station Observations
WATERF01
WaterfordIE

WaterfordIE

Lat: 52.2412507, Lon: -7.1414691

Elevation: 65

Station Type: Davis Vantage Vue

www.waterfordweather.com

High Low Average
Temperature 52.1°F11.2°C 48.3°F9.1°C 50.5°F10.3°C
Dew Point 51.3°F10.7°C 47.2°F8.4°C 49.6°F9.8°C
Winds 8.1 mph 13.0 kmh Calm Calm 4.0 mph SW6.4 kmh SW
Wind Gusts 13.8 mph22.2 kmh 1.2 mph1.9 kmh 7.0 mph11.3 kmh
Humidity 98% 96% 97%
Pressure 30.51 in1033.2 mb 30.47 in1031.8 mb -
Precipitation 0.03 in0.8 mm - -
Hour Temp Dew Point Humidity Winds Wind Gusts Pressure Precip Precip Rate Daily Precip Total
12:00 AM 48.3°F9.1°C 47.2°F8.4°C 96% 3.5 mph SW5.6 kmh SW 6.9 mph11.1 kmh 30.48 in1032.2 mb - 0.00 in0.0 mm 0.00 in0.0 mm
12:10 AM 48.5°F9.2°C 47.4°F8.6°C 96% 3.5 mph NW5.6 kmh NW 5.8 mph9.3 kmh 30.48 in1032.2 mb - 0.00 in0.0 mm 0.00 in0.0 mm
12:20 AM 48.5°F9.2°C 47.4°F8.6°C 96% 3.5 mph WSW5.6 kmh WSW 5.8 mph9.3 kmh 30.48 in1032.2 mb - 0.00 in0.0 mm 0.00 in0.0 mm
12:30 AM 48.5°F9.2°C 47.4°F8.6°C 96% 3.5 mph SSW5.6 kmh SSW 4.6 mph7.4 kmh 30.48 in1032.2 mb - 0.00 in0.0 mm 0.00 in0.0 mm
12:40 AM 48.5°F9.2°C 47.4°F8.6°C 96% 3.5 mph SSW5.6 kmh SSW 5.8 mph9.3 kmh 30.48 in1032.2 mb - 0.00 in0.0 mm 0.00 in0.0 mm
12:50 AM 48.4°F9.1°C 47.3°F8.5°C 96% 2.3 mph S3.7 kmh S 5.8 mph9.3 kmh 30.48 in1032.2 mb - 0.00 in0.0 mm 0.00 in0.0 mm
01:00 AM 48.5°F9.2°C 47.4°F8.6°C 96% 2.3 mph SSE3.7 kmh SSE 5.8 mph9.3 kmh 30.48 in1032.2 mb - 0.00 in0.0 mm 0.00 in0.0 mm
01:10 AM 48.5°F9.2°C 47.4°F8.6°C 96% 1.2 mph WSW1.9 kmh WSW 2.3 mph3.7 kmh 30.48 in1032.2 mb - 0.00 in0.0 mm 0.00 in0.0 mm
01:20 AM 48.5°F9.2°C 47.4°F8.6°C 96% Calm Calm 2.3 mph3.7 kmh 30.48 in1032.2 mb - 0.00 in0.0 mm 0.00 in0.0 mm
01:30 AM 48.5°F9.2°C 47.4°F8.6°C 96% 2.3 mph S3.7 kmh S 2.3 mph3.7 kmh 30.48 in1032.2 mb - 0.00 in0.0 mm 0.00 in0.0 mm
01:40 AM 48.6°F9.2°C 47.5°F8.6°C 96% 2.3 mph S3.7 kmh S 5.8 mph9.3 kmh 30.48 in1032.2 mb - 0.00 in0.0 mm 0.00 in0.0 mm
01:50 AM 48.7°F9.3°C 47.6°F8.7°C 96% 2.3 mph S3.7 kmh S 5.8 mph9.3 kmh 30.47 in1031.8 mb - 0.00 in0.0 mm 0.00 in0.0 mm
02:00 AM 48.8°F9.3°C 47.7°F8.7°C 96% 1.2 mph SSE1.9 kmh SSE 2.3 mph3.7 kmh 30.47 in1031.8 mb - 0.00 in0.0 mm 0.00 in0.0 mm
02:10 AM 48.7°F9.3°C 47.6°F8.7°C 96% 1.2 mph SSE1.9 kmh SSE 1.2 mph1.9 kmh 30.48 in1032.2 mb - 0.00 in0.0 mm 0.00 in0.0 mm
02:20 AM 48.7°F9.3°C 47.6°F8.7°C 96% 1.2 mph E1.9 kmh E 2.3 mph3.7 kmh 30.48 in1032.2 mb - 0.00 in0.0 mm 0.00 in0.0 mm
02:30 AM 48.8°F9.3°C 47.7°F8.7°C 96% 2.3 mph SW3.7 kmh SW 6.9 mph11.1 kmh 30.48 in1032.2 mb - 0.00 in0.0 mm 0.00 in0.0 mm
02:40 AM 49.0°F9.4°C 47.9°F8.8°C 96% 3.5 mph SW5.6 kmh SW 5.8 mph9.3 kmh 30.48 in1032.2 mb - 0.00 in0.0 mm 0.00 in0.0 mm
02:50 AM 49.0°F9.4°C 48.0°F8.9°C 96% 3.5 mph SSW5.6 kmh SSW 8.1 mph13.0 kmh 30.48 in1032.2 mb - 0.00 in0.0 mm 0.00 in0.0 mm
03:00 AM 49.1°F9.5°C 48.0°F8.9°C 96% 4.6 mph S7.4 kmh S 8.1 mph13.0 kmh 30.48 in1032.2 mb - 0.00 in0.0 mm 0.00 in0.0 mm
03:10 AM 49.2°F9.6°C 48.1°F8.9°C 96% 5.8 mph S9.3 kmh S 8.1 mph13.0 kmh 30.48 in1032.2 mb - 0.00 in0.0 mm 0.00 in0.0 mm
03:20 AM 49.1°F9.5°C 48.0°F8.9°C 96% 5.8 mph SSW9.3 kmh SSW 8.1 mph13.0 kmh 30.48 in1032.2 mb - 0.00 in0.0 mm 0.00 in0.0 mm
03:30 AM 49.1°F9.5°C 48.0°F8.9°C 96% 3.5 mph S5.6 kmh S 4.6 mph7.4 kmh 30.48 in1032.2 mb - 0.00 in0.0 mm 0.00 in0.0 mm
03:40 AM 49.2°F9.6°C 48.1°F8.9°C 96% 3.5 mph SW5.6 kmh SW 5.8 mph9.3 kmh 30.48 in1032.2 mb - 0.00 in0.0 mm 0.00 in0.0 mm
03:50 AM 49.3°F9.6°C 48.2°F9.0°C 96% 4.6 mph SSW7.4 kmh SSW 5.8 mph9.3 kmh 30.48 in1032.2 mb - 0.00 in0.0 mm 0.00 in0.0 mm
04:00 AM 49.3°F9.6°C 48.2°F9.0°C 96% 3.5 mph WSW5.6 kmh WSW 5.8 mph9.3 kmh 30.48 in1032.2 mb - 0.00 in0.0 mm 0.00 in0.0 mm
04:10 AM 49.4°F9.7°C 48.3°F9.1°C 96% 1.2 mph SW1.9 kmh SW 2.3 mph3.7 kmh 30.49 in1032.5 mb - 0.00 in0.0 mm 0.00 in0.0 mm
04:20 AM 49.4°F9.7°C 48.6°F9.2°C 97% 2.3 mph WSW3.7 kmh WSW 4.6 mph7.4 kmh 30.48 in1032.2 mb - 0.00 in0.0 mm 0.00 in0.0 mm
04:30 AM 49.5°F9.7°C 48.7°F9.3°C 97% 1.2 mph S1.9 kmh S 2.3 mph3.7 kmh 30.48 in1032.2 mb - 0.00 in0.0 mm 0.00 in0.0 mm
04:40 AM 49.5°F9.7°C 48.7°F9.3°C 97% 2.3 mph SW3.7 kmh SW 5.8 mph9.3 kmh 30.49 in1032.5 mb - 0.00 in0.0 mm 0.00 in0.0 mm
04:50 AM 49.6°F9.8°C 48.8°F9.3°C 97% 3.5 mph SW5.6 kmh SW 5.8 mph9.3 kmh 30.48 in1032.2 mb - 0.00 in0.0 mm 0.00 in0.0 mm
05:00 AM 49.6°F9.8°C 48.8°F9.3°C 97% 3.5 mph NW5.6 kmh NW 8.1 mph13.0 kmh 30.48 in1032.2 mb - 0.00 in0.0 mm 0.00 in0.0 mm
05:10 AM 49.7°F9.8°C 48.8°F9.3°C 97% 4.6 mph SE7.4 kmh SE 8.1 mph13.0 kmh 30.48 in1032.2 mb - 0.00 in0.0 mm 0.00 in0.0 mm
05:20 AM 49.7°F9.8°C 48.9°F9.4°C 97% 2.3 mph SSW3.7 kmh SSW 5.8 mph9.3 kmh 30.49 in1032.5 mb - 0.00 in0.0 mm 0.00 in0.0 mm
05:30 AM 49.7°F9.8°C 48.9°F9.4°C 97% 2.3 mph SW3.7 kmh SW 5.8 mph9.3 kmh 30.49 in1032.5 mb - 0.00 in0.0 mm 0.00 in0.0 mm
05:40 AM 49.6°F9.8°C 48.8°F9.3°C 97% 3.5 mph WSW5.6 kmh WSW 5.8 mph9.3 kmh 30.48 in1032.2 mb - 0.00 in0.0 mm 0.00 in0.0 mm
05:50 AM 49.7°F9.8°C 48.9°F9.4°C 97% 4.6 mph SW7.4 kmh SW 6.9 mph11.1 kmh 30.48 in1032.2 mb - 0.00 in0.0 mm 0.00 in0.0 mm
06:00 AM 49.7°F9.8°C 48.9°F9.4°C 97% 3.5 mph S5.6 kmh S 5.8 mph9.3 kmh 30.48 in1032.2 mb - 0.00 in0.0 mm 0.00 in0.0 mm
06:10 AM 49.7°F9.8°C 48.9°F9.4°C 97% 1.2 mph SE1.9 kmh SE 2.3 mph3.7 kmh 30.48 in1032.2 mb - 0.00 in0.0 mm 0.00 in0.0 mm
06:20 AM 49.8°F9.9°C 49.0°F9.4°C 97% 1.2 mph W1.9 kmh W 4.6 mph7.4 kmh 30.48 in1032.2 mb - 0.00 in0.0 mm 0.00 in0.0 mm
06:30 AM 49.8°F9.9°C 49.0°F9.4°C 97% 4.6 mph SE7.4 kmh SE 6.9 mph11.1 kmh 30.49 in1032.5 mb - 0.00 in0.0 mm 0.00 in0.0 mm
06:40 AM 49.9°F9.9°C 49.1°F9.5°C 97% 2.3 mph SW3.7 kmh SW 5.8 mph9.3 kmh 30.49 in1032.5 mb - 0.00 in0.0 mm 0.00 in0.0 mm
06:50 AM 49.8°F9.9°C 49.0°F9.4°C 97% 3.5 mph SW5.6 kmh SW 8.1 mph13.0 kmh 30.49 in1032.5 mb - 0.00 in0.0 mm 0.00 in0.0 mm
07:00 AM 49.9°F9.9°C 49.1°F9.5°C 97% 3.5 mph WNW5.6 kmh WNW 5.8 mph9.3 kmh 30.49 in1032.5 mb - 0.00 in0.0 mm 0.00 in0.0 mm
07:10 AM 49.9°F9.9°C 49.1°F9.5°C 97% 2.3 mph WSW3.7 kmh WSW 5.8 mph9.3 kmh 30.49 in1032.5 mb - 0.01 in0.3 mm 0.01 in0.3 mm
07:20 AM 49.9°F9.9°C 49.1°F9.5°C 97% 3.5 mph WSW5.6 kmh WSW 5.8 mph9.3 kmh 30.49 in1032.5 mb - 0.01 in0.3 mm 0.01 in0.3 mm
07:30 AM 49.9°F9.9°C 49.1°F9.5°C 97% 3.5 mph SW5.6 kmh SW 5.8 mph9.3 kmh 30.49 in1032.5 mb - 0.00 in0.0 mm 0.01 in0.3 mm
07:40 AM 50.0°F10.0°C 49.2°F9.6°C 97% 2.3 mph W3.7 kmh W 5.8 mph9.3 kmh 30.50 in1032.8 mb - 0.00 in0.0 mm 0.01 in0.3 mm
07:50 AM 50.0°F10.0°C 49.2°F9.6°C 97% Calm Calm 2.3 mph3.7 kmh 30.49 in1032.5 mb - 0.00 in0.0 mm 0.01 in0.3 mm
08:00 AM 50.0°F10.0°C 49.2°F9.6°C 97% 1.2 mph W1.9 kmh W 4.6 mph7.4 kmh 30.49 in1032.5 mb - 0.00 in0.0 mm 0.01 in0.3 mm
08:10 AM 50.0°F10.0°C 49.2°F9.6°C 97% 3.5 mph SW5.6 kmh SW 6.9 mph11.1 kmh 30.49 in1032.5 mb - 0.00 in0.0 mm 0.01 in0.3 mm
08:20 AM 50.1°F10.1°C 49.3°F9.6°C 97% 1.2 mph SSW1.9 kmh SSW 2.3 mph3.7 kmh 30.49 in1032.5 mb - 0.00 in0.0 mm 0.01 in0.3 mm
08:30 AM 50.1°F10.1°C 49.3°F9.6°C 97% 3.5 mph SSW5.6 kmh SSW 5.8 mph9.3 kmh 30.50 in1032.8 mb - 0.00 in0.0 mm 0.01 in0.3 mm
08:40 AM 50.1°F10.1°C 49.2°F9.6°C 97% 3.5 mph S5.6 kmh S 5.8 mph9.3 kmh 30.50 in1032.8 mb - 0.00 in0.0 mm 0.01 in0.3 mm
08:50 AM 50.0°F10.0°C 49.2°F9.6°C 97% 3.5 mph S5.6 kmh S 5.8 mph9.3 kmh 30.50 in1032.8 mb - 0.00 in0.0 mm 0.01 in0.3 mm
09:00 AM 50.1°F10.1°C 49.3°F9.6°C 97% 5.8 mph S9.3 kmh S 8.1 mph13.0 kmh 30.49 in1032.5 mb - 0.00 in0.0 mm 0.01 in0.3 mm
09:10 AM 50.2°F10.1°C 49.4°F9.7°C 97% 4.6 mph S7.4 kmh S 5.8 mph9.3 kmh 30.50 in1032.8 mb - 0.00 in0.0 mm 0.01 in0.3 mm
09:20 AM 50.4°F10.2°C 49.6°F9.8°C 97% 4.6 mph SSW7.4 kmh SSW 8.1 mph13.0 kmh 30.50 in1032.8 mb - 0.00 in0.0 mm 0.01 in0.3 mm
09:30 AM 50.4°F10.2°C 49.6°F9.8°C 97% 3.5 mph S5.6 kmh S 4.6 mph7.4 kmh 30.50 in1032.8 mb - 0.00 in0.0 mm 0.01 in0.3 mm
09:40 AM 50.6°F10.3°C 49.8°F9.9°C 97% 1.2 mph WSW1.9 kmh WSW 5.8 mph9.3 kmh 30.51 in1033.2 mb - 0.00 in0.0 mm 0.01 in0.3 mm
09:50 AM 50.9°F10.5°C 50.0°F10.0°C 97% 2.3 mph WSW3.7 kmh WSW 5.8 mph9.3 kmh 30.51 in1033.2 mb - 0.00 in0.0 mm 0.01 in0.3 mm
10:00 AM 51.0°F10.6°C 50.2°F10.1°C 97% 4.6 mph SSW7.4 kmh SSW 5.8 mph9.3 kmh 30.51 in1033.2 mb - 0.00 in0.0 mm 0.01 in0.3 mm
10:10 AM 51.0°F10.6°C 50.2°F10.1°C 97% 3.5 mph SSW5.6 kmh SSW 6.9 mph11.1 kmh 30.51 in1033.2 mb - 0.00 in0.0 mm 0.01 in0.3 mm
10:20 AM 51.1°F10.6°C 50.3°F10.2°C 97% 3.5 mph S5.6 kmh S 6.9 mph11.1 kmh 30.51 in1033.2 mb - 0.00 in0.0 mm 0.01 in0.3 mm
10:30 AM 51.1°F10.6°C 50.3°F10.2°C 97% 3.5 mph WSW5.6 kmh WSW 5.8 mph9.3 kmh 30.51 in1033.2 mb - 0.00 in0.0 mm 0.01 in0.3 mm
10:40 AM 51.2°F10.7°C 50.4°F10.2°C 97% 5.8 mph WSW9.3 kmh WSW 8.1 mph13.0 kmh 30.51 in1033.2 mb - 0.00 in0.0 mm 0.01 in0.3 mm
10:50 AM 51.3°F10.7°C 50.5°F10.3°C 97% 4.6 mph SW7.4 kmh SW 8.1 mph13.0 kmh 30.51 in1033.2 mb - 0.00 in0.0 mm 0.01 in0.3 mm
11:00 AM 51.5°F10.8°C 50.7°F10.4°C 97% 5.8 mph WSW9.3 kmh WSW 8.1 mph13.0 kmh 30.51 in1033.2 mb - 0.00 in0.0 mm 0.01 in0.3 mm
11:10 AM 51.6°F10.9°C 50.8°F10.4°C 97% 4.6 mph W7.4 kmh W 6.9 mph11.1 kmh 30.51 in1033.2 mb - 0.00 in0.0 mm 0.01 in0.3 mm
11:20 AM 51.6°F10.9°C 50.8°F10.4°C 97% 3.5 mph SW5.6 kmh SW 5.8 mph9.3 kmh 30.51 in1033.2 mb - 0.00 in0.0 mm 0.01 in0.3 mm
11:30 AM 51.5°F10.8°C 50.7°F10.4°C 97% 5.8 mph SW9.3 kmh SW 9.2 mph14.8 kmh 30.51 in1033.2 mb - 0.00 in0.0 mm 0.01 in0.3 mm
11:40 AM 51.6°F10.9°C 50.8°F10.4°C 97% 5.8 mph SW9.3 kmh SW 9.2 mph14.8 kmh 30.51 in1033.2 mb - 0.00 in0.0 mm 0.01 in0.3 mm
11:50 AM 51.6°F10.9°C 50.8°F10.4°C 97% 3.5 mph WSW5.6 kmh WSW 5.8 mph9.3 kmh 30.51 in1033.2 mb - 0.00 in0.0 mm 0.01 in0.3 mm
12:00 PM 51.8°F11.0°C 51.0°F10.6°C 97% 3.5 mph WNW5.6 kmh WNW 5.8 mph9.3 kmh 30.51 in1033.2 mb - 0.00 in0.0 mm 0.01 in0.3 mm
12:10 PM 52.0°F11.1°C 51.2°F10.7°C 97% 4.6 mph WSW7.4 kmh WSW 9.2 mph14.8 kmh 30.51 in1033.2 mb - 0.00 in0.0 mm 0.01 in0.3 mm
12:20 PM 51.9°F11.1°C 51.1°F10.6°C 97% 4.6 mph WNW7.4 kmh WNW 5.8 mph9.3 kmh 30.51 in1033.2 mb - 0.00 in0.0 mm 0.01 in0.3 mm
12:30 PM 52.0°F11.1°C 51.2°F10.7°C 97% 4.6 mph WNW7.4 kmh WNW 9.2 mph14.8 kmh 30.51 in1033.2 mb - 0.00 in0.0 mm 0.01 in0.3 mm
12:40 PM 52.0°F11.1°C 51.2°F10.7°C 97% 5.8 mph WSW9.3 kmh WSW 8.1 mph13.0 kmh 30.50 in1032.8 mb - 0.00 in0.0 mm 0.01 in0.3 mm
12:50 PM 52.1°F11.2°C 51.3°F10.7°C 97% 5.8 mph WSW9.3 kmh WSW 9.2 mph14.8 kmh 30.50 in1032.8 mb - 0.00 in0.0 mm 0.01 in0.3 mm
01:00 PM 52.1°F11.2°C 51.3°F10.7°C 97% 4.6 mph SW7.4 kmh SW 9.2 mph14.8 kmh 30.50 in1032.8 mb - 0.00 in0.0 mm 0.01 in0.3 mm
01:10 PM 52.0°F11.1°C 51.2°F10.7°C 97% 5.8 mph WSW9.3 kmh WSW 12.7 mph20.4 kmh 30.50 in1032.8 mb - 0.00 in0.0 mm 0.01 in0.3 mm
01:20 PM 51.9°F11.1°C 51.1°F10.6°C 97% 5.8 mph WNW9.3 kmh WNW 9.2 mph14.8 kmh 30.50 in1032.8 mb - 0.00 in0.0 mm 0.01 in0.3 mm
01:30 PM 51.8°F11.0°C 51.0°F10.6°C 97% 5.8 mph SW9.3 kmh SW 9.2 mph14.8 kmh 30.50 in1032.8 mb - 0.00 in0.0 mm 0.01 in0.3 mm
01:40 PM 51.6°F10.9°C 50.8°F10.4°C 97% 6.9 mph WSW11.1 kmh WSW 12.7 mph20.4 kmh 30.50 in1032.8 mb - 0.00 in0.0 mm 0.01 in0.3 mm
01:50 PM 51.5°F10.8°C 50.7°F10.4°C 97% 6.9 mph WSW11.1 kmh WSW 11.5 mph18.5 kmh 30.49 in1032.5 mb - 0.00 in0.0 mm 0.01 in0.3 mm
02:00 PM 51.4°F10.8°C 50.6°F10.3°C 97% 5.8 mph W9.3 kmh W 9.2 mph14.8 kmh 30.49 in1032.5 mb - 0.00 in0.0 mm 0.01 in0.3 mm
02:10 PM 51.4°F10.8°C 50.6°F10.3°C 97% 5.8 mph WSW9.3 kmh WSW 8.1 mph13.0 kmh 30.49 in1032.5 mb - 0.00 in0.0 mm 0.01 in0.3 mm
02:20 PM 51.5°F10.8°C 50.7°F10.4°C 97% 5.8 mph WNW9.3 kmh WNW 8.1 mph13.0 kmh 30.50 in1032.8 mb - 0.00 in0.0 mm 0.01 in0.3 mm
02:30 PM 51.5°F10.8°C 50.7°F10.4°C 97% 4.6 mph WSW7.4 kmh WSW 8.1 mph13.0 kmh 30.50 in1032.8 mb - 0.00 in0.0 mm 0.01 in0.3 mm
02:40 PM 51.5°F10.8°C 50.7°F10.4°C 97% 5.8 mph SW9.3 kmh SW 11.5 mph18.5 kmh 30.50 in1032.8 mb - 0.00 in0.0 mm 0.01 in0.3 mm
02:50 PM 51.4°F10.8°C 50.6°F10.3°C 97% 5.8 mph WSW9.3 kmh WSW 5.8 mph9.3 kmh 30.50 in1032.8 mb - 0.00 in0.0 mm 0.01 in0.3 mm
03:00 PM 51.4°F10.8°C 50.6°F10.3°C 97% 4.6 mph W7.4 kmh W 8.1 mph13.0 kmh 30.50 in1032.8 mb - 0.00 in0.0 mm 0.01 in0.3 mm
03:10 PM 51.3°F10.7°C 50.5°F10.3°C 97% 6.9 mph WSW11.1 kmh WSW 8.1 mph13.0 kmh 30.50 in1032.8 mb - 0.00 in0.0 mm 0.01 in0.3 mm
03:20 PM 51.3°F10.7°C 50.5°F10.3°C 97% 3.5 mph WNW5.6 kmh WNW 5.8 mph9.3 kmh 30.50 in1032.8 mb - 0.00 in0.0 mm 0.01 in0.3 mm
03:30 PM 51.2°F10.7°C 50.4°F10.2°C 97% 5.8 mph W9.3 kmh W 11.5 mph18.5 kmh 30.50 in1032.8 mb - 0.00 in0.0 mm 0.01 in0.3 mm
03:40 PM 51.2°F10.7°C 50.4°F10.2°C 97% 4.6 mph SE7.4 kmh SE 8.1 mph13.0 kmh 30.50 in1032.8 mb - 0.00 in0.0 mm 0.01 in0.3 mm
03:50 PM 51.2°F10.7°C 50.4°F10.2°C 97% 5.8 mph W9.3 kmh W 8.1 mph13.0 kmh 30.50 in1032.8 mb - 0.00 in0.0 mm 0.01 in0.3 mm
04:00 PM 51.3°F10.7°C 50.5°F10.3°C 97% 3.5 mph W5.6 kmh W 9.2 mph14.8 kmh 30.50 in1032.8 mb - 0.00 in0.0 mm 0.01 in0.3 mm
04:10 PM 51.2°F10.7°C 50.4°F10.2°C 97% 4.6 mph WNW7.4 kmh WNW 6.9 mph11.1 kmh 30.50 in1032.8 mb - 0.00 in0.0 mm 0.01 in0.3 mm
04:20 PM 51.2°F10.7°C 50.4°F10.2°C 97% 3.5 mph SE5.6 kmh SE 6.9 mph11.1 kmh 30.50 in1032.8 mb - 0.00 in0.0 mm 0.01 in0.3 mm
04:30 PM 51.2°F10.7°C 50.4°F10.2°C 97% 5.8 mph SW9.3 kmh SW 8.1 mph13.0 kmh 30.50 in1032.8 mb - 0.00 in0.0 mm 0.01 in0.3 mm
04:40 PM 51.1°F10.6°C 50.3°F10.2°C 97% 3.5 mph WSW5.6 kmh WSW 6.9 mph11.1 kmh 30.50 in1032.8 mb - 0.00 in0.0 mm 0.01 in0.3 mm
04:50 PM 51.0°F10.6°C 50.2°F10.1°C 97% 6.9 mph SW11.1 kmh SW 9.2 mph14.8 kmh 30.50 in1032.8 mb - 0.00 in0.0 mm 0.01 in0.3 mm
05:00 PM 50.9°F10.5°C 50.1°F10.1°C 97% 5.8 mph WNW9.3 kmh WNW 8.1 mph13.0 kmh 30.49 in1032.5 mb - 0.00 in0.0 mm 0.01 in0.3 mm
05:10 PM 50.9°F10.5°C 50.1°F10.1°C 97% 5.8 mph W9.3 kmh W 9.2 mph14.8 kmh 30.49 in1032.5 mb - 0.00 in0.0 mm 0.01 in0.3 mm
05:20 PM 50.9°F10.5°C 50.1°F10.1°C 97% 4.6 mph NW7.4 kmh NW 8.1 mph13.0 kmh 30.49 in1032.5 mb - 0.00 in0.0 mm 0.01 in0.3 mm
05:30 PM 50.9°F10.5°C 50.1°F10.1°C 97% 4.6 mph WSW7.4 kmh WSW 5.8 mph9.3 kmh 30.50 in1032.8 mb - 0.00 in0.0 mm 0.01 in0.3 mm
05:40 PM 50.8°F10.4°C 50.0°F10.0°C 97% 4.6 mph SW7.4 kmh SW 8.1 mph13.0 kmh 30.50 in1032.8 mb - 0.00 in0.0 mm 0.01 in0.3 mm
05:50 PM 50.8°F10.4°C 50.0°F10.0°C 97% 2.3 mph NW3.7 kmh NW 5.8 mph9.3 kmh 30.50 in1032.8 mb - 0.00 in0.0 mm 0.01 in0.3 mm
06:00 PM 50.8°F10.4°C 50.0°F10.0°C 97% 1.2 mph SW1.9 kmh SW 4.6 mph7.4 kmh 30.51 in1033.2 mb - 0.00 in0.0 mm 0.01 in0.3 mm
06:10 PM 50.8°F10.4°C 50.0°F10.0°C 97% Calm Calm 2.3 mph3.7 kmh 30.51 in1033.2 mb - 0.00 in0.0 mm 0.01 in0.3 mm
06:20 PM 50.8°F10.4°C 50.0°F10.0°C 97% 1.2 mph SW1.9 kmh SW 5.8 mph9.3 kmh 30.51 in1033.2 mb - 0.01 in0.3 mm 0.02 in0.5 mm
06:30 PM 50.9°F10.5°C 50.1°F10.1°C 97% 3.5 mph SW5.6 kmh SW 5.8 mph9.3 kmh 30.50 in1032.8 mb - 0.00 in0.0 mm 0.02 in0.5 mm
06:40 PM 51.0°F10.6°C 50.2°F10.1°C 97% 6.9 mph WSW11.1 kmh WSW 11.5 mph18.5 kmh 30.50 in1032.8 mb - 0.00 in0.0 mm 0.02 in0.5 mm
06:50 PM 51.1°F10.6°C 50.3°F10.2°C 97% 8.1 mph WSW13.0 kmh WSW 13.8 mph22.2 kmh 30.51 in1033.2 mb - 0.00 in0.0 mm 0.02 in0.5 mm
07:00 PM 51.2°F10.7°C 50.4°F10.2°C 97% 5.8 mph NW9.3 kmh NW 9.2 mph14.8 kmh 30.51 in1033.2 mb - 0.00 in0.0 mm 0.02 in0.5 mm
07:10 PM 51.2°F10.7°C 50.4°F10.2°C 97% 5.8 mph SW9.3 kmh SW 11.5 mph18.5 kmh 30.51 in1033.2 mb - 0.00 in0.0 mm 0.02 in0.5 mm
07:20 PM 51.2°F10.7°C 50.4°F10.2°C 97% 5.8 mph W9.3 kmh W 11.5 mph18.5 kmh 30.51 in1033.2 mb - 0.00 in0.0 mm 0.02 in0.5 mm
07:30 PM 51.3°F10.7°C 50.4°F10.2°C 97% 5.8 mph NW9.3 kmh NW 9.2 mph14.8 kmh 30.51 in1033.2 mb - 0.00 in0.0 mm 0.02 in0.5 mm
07:40 PM 51.3°F10.7°C 50.5°F10.3°C 97% 5.8 mph W9.3 kmh W 13.8 mph22.2 kmh 30.51 in1033.2 mb - 0.00 in0.0 mm 0.02 in0.5 mm
07:50 PM 51.4°F10.8°C 50.6°F10.3°C 97% 5.8 mph N9.3 kmh N 9.2 mph14.8 kmh 30.51 in1033.2 mb - 0.00 in0.0 mm 0.02 in0.5 mm
08:00 PM 51.4°F10.8°C 50.6°F10.3°C 97% 4.6 mph WSW7.4 kmh WSW 8.1 mph13.0 kmh 30.51 in1033.2 mb - 0.00 in0.0 mm 0.02 in0.5 mm
08:10 PM 51.3°F10.7°C 50.5°F10.3°C 97% 3.5 mph WSW5.6 kmh WSW 8.1 mph13.0 kmh 30.51 in1033.2 mb - 0.00 in0.0 mm 0.02 in0.5 mm
08:20 PM 51.2°F10.7°C 50.4°F10.2°C 97% 3.5 mph SSE5.6 kmh SSE 6.9 mph11.1 kmh 30.50 in1032.8 mb - 0.00 in0.0 mm 0.02 in0.5 mm
08:30 PM 51.1°F10.6°C 50.3°F10.2°C 97% 2.3 mph WSW3.7 kmh WSW 8.1 mph13.0 kmh 30.50 in1032.8 mb - 0.00 in0.0 mm 0.02 in0.5 mm
08:40 PM 51.1°F10.6°C 50.3°F10.2°C 97% 5.8 mph NNW9.3 kmh NNW 13.8 mph22.2 kmh 30.51 in1033.2 mb - 0.00 in0.0 mm 0.02 in0.5 mm
08:50 PM 51.1°F10.6°C 50.3°F10.2°C 97% 5.8 mph W9.3 kmh W 11.5 mph18.5 kmh 30.51 in1033.2 mb - 0.00 in0.0 mm 0.02 in0.5 mm
09:00 PM 51.1°F10.6°C 50.3°F10.2°C 97% 4.6 mph WSW7.4 kmh WSW 11.5 mph18.5 kmh 30.51 in1033.2 mb - 0.00 in0.0 mm 0.02 in0.5 mm
09:10 PM 51.1°F10.6°C 50.2°F10.1°C 97% 4.6 mph WSW7.4 kmh WSW 6.9 mph11.1 kmh 30.51 in1033.2 mb - 0.00 in0.0 mm 0.02 in0.5 mm
09:20 PM 51.0°F10.6°C 50.2°F10.1°C 97% 3.5 mph NW5.6 kmh NW 6.9 mph11.1 kmh 30.50 in1032.8 mb - 0.00 in0.0 mm 0.02 in0.5 mm
09:30 PM 51.0°F10.6°C 50.2°F10.1°C 97% 3.5 mph WSW5.6 kmh WSW 5.8 mph9.3 kmh 30.50 in1032.8 mb - 0.00 in0.0 mm 0.02 in0.5 mm
09:40 PM 50.9°F10.5°C 50.1°F10.1°C 97% 3.5 mph WNW5.6 kmh WNW 5.8 mph9.3 kmh 30.50 in1032.8 mb - 0.00 in0.0 mm 0.02 in0.5 mm
09:50 PM 50.8°F10.4°C 50.0°F10.0°C 97% 3.5 mph WSW5.6 kmh WSW 8.1 mph13.0 kmh 30.50 in1032.8 mb - 0.00 in0.0 mm 0.02 in0.5 mm
10:00 PM 50.8°F10.4°C 50.0°F10.0°C 97% 2.3 mph WSW3.7 kmh WSW 5.8 mph9.3 kmh 30.50 in1032.8 mb - 0.00 in0.0 mm 0.02 in0.5 mm
10:10 PM 50.9°F10.5°C 50.1°F10.1°C 97% 4.6 mph WSW7.4 kmh WSW 8.1 mph13.0 kmh 30.50 in1032.8 mb - 0.00 in0.0 mm 0.02 in0.5 mm
10:20 PM 51.0°F10.6°C 50.2°F10.1°C 97% 6.9 mph WNW11.1 kmh WNW 11.5 mph18.5 kmh 30.50 in1032.8 mb - 0.00 in0.0 mm 0.02 in0.5 mm
10:30 PM 51.1°F10.6°C 50.3°F10.2°C 97% 4.6 mph WSW7.4 kmh WSW 8.1 mph13.0 kmh 30.50 in1032.8 mb - 0.00 in0.0 mm 0.02 in0.5 mm
10:40 PM 51.1°F10.6°C 50.3°F10.2°C 97% 4.6 mph W7.4 kmh W 8.1 mph13.0 kmh 30.50 in1032.8 mb - 0.00 in0.0 mm 0.02 in0.5 mm
10:50 PM 51.1°F10.6°C 50.3°F10.2°C 97% 4.6 mph WSW7.4 kmh WSW 9.2 mph14.8 kmh 30.50 in1032.8 mb - 0.00 in0.0 mm 0.02 in0.5 mm
11:00 PM 51.1°F10.6°C 50.3°F10.2°C 97% 5.8 mph W9.3 kmh W 11.5 mph18.5 kmh 30.50 in1032.8 mb - 0.00 in0.0 mm 0.02 in0.5 mm
11:10 PM 51.0°F10.6°C 50.2°F10.1°C 97% 6.9 mph SW11.1 kmh SW 13.8 mph22.2 kmh 30.50 in1032.8 mb - 0.00 in0.0 mm 0.02 in0.5 mm
11:20 PM 50.9°F10.5°C 50.1°F10.1°C 97% 6.9 mph WSW11.1 kmh WSW 8.1 mph13.0 kmh 30.50 in1032.8 mb - 0.01 in0.3 mm 0.03 in0.8 mm
11:30 PM 50.9°F10.5°C 50.4°F10.2°C 98% 5.8 mph N9.3 kmh N 9.2 mph14.8 kmh 30.50 in1032.8 mb - 0.00 in0.0 mm 0.03 in0.8 mm
11:40 PM 51.0°F10.6°C 50.5°F10.3°C 98% 6.9 mph WSW11.1 kmh WSW 12.7 mph20.4 kmh 30.51 in1033.2 mb - 0.00 in0.0 mm 0.03 in0.8 mm
11:50 PM 51.0°F10.6°C 50.5°F10.3°C 98% 6.9 mph W11.1 kmh W 11.5 mph18.5 kmh 30.50 in1032.8 mb - 0.00 in0.0 mm 0.03 in0.8 mm